EGXC - Coningsby Royal Air Force Base
Distance from station: E 5mi, 14km
Updated: 12/11/2017 2:50pm
Few Clouds
Few Clouds
 Wind from NW
Wind: NW 12 mph , 19 km/h
Temperature: 30°F , -1°C
Wind Chill: 20°F , -7°C
Dew Point: 30°F , -1°C
Humidity: 100%
Barometer: 29.41 inHg , 996 hPa
Clouds: Few Clouds
Visibility: 6 miles , 10 km
Cloud details: Few Clouds 500 ft
Few Clouds 3500 ft
2017/12/11 22:50 EGXC 112250Z 31010KT 9999 FEW005 FEW035CB M01/M01 Q0996 BLU